Terminal Aerodrome Forecast
Issued by NWS Boston, MA

Home | Current Version | Previous Version | Text Only | Print | Product List | Glossary On
Versions: 1 2 3 4 5 6 7 8 9 10 11 12 13 14 15 16 17 18 19 20 21 22 23 24 25 26 27 28 29 30 31 32 33 34 35 36 37 38 39 40 41 42 43 44 45 46
444
FTUS41 KBOX 221740 AAB
TAFBDL
TAF AMD
KBDL 221740Z 2218/2324 VRB03KT P6SM BKN250
     FM230000 VRB03KT P6SM SCT250
     FM230700 00000KT 4SM BR FEW007 SCT250
     FM231200 00000KT P6SM SCT200
     FM231500 17005KT P6SM BKN020
     FM231900 17008KT P6SM BKN035
     FM232300 16008KT P6SM VCSH BKN045=

USA.gov is the U.S. government's official web portal to all federal, state and local government web resources and services.